sensor_id;sensor_type;location;lat;lon;timestamp;pressure;altitude;pressure_sealevel;temperature;humidity
64698;BME280;51124;53.394;-6.294;2023-05-02T00:00:03;101604.67;;;18.24;11.84
64698;BME280;51124;53.394;-6.294;2023-05-02T00:02:37;101608.24;;;18.28;11.19
64698;BME280;51124;53.394;-6.294;2023-05-02T00:05:14;101608.24;;;17.79;11.12
64698;BME280;51124;53.394;-6.294;2023-05-02T00:07:42;101611.82;;;18.47;10.66
64698;BME280;51124;53.394;-6.294;2023-05-02T00:10:09;101612.77;;;18.30;10.58
64698;BME280;51124;53.394;-6.294;2023-05-02T00:12:37;101613.50;;;17.41;10.68
64698;BME280;51124;53.394;-6.294;2023-05-02T00:15:05;101613.88;;;18.19;10.42
64698;BME280;51124;53.394;-6.294;2023-05-02T00:17:32;101613.59;;;18.11;10.14
64698;BME280;51124;53.394;-6.294;2023-05-02T00:20:00;101620.39;;;18.63;9.97
64698;BME280;51124;53.394;-6.294;2023-05-02T00:22:27;101619.52;;;18.03;10.02
64698;BME280;51124;53.394;-6.294;2023-05-02T00:24:57;101618.40;;;18.69;9.97
64698;BME280;51124;53.394;-6.294;2023-05-02T00:27:24;101614.99;;;18.24;9.89
64698;BME280;51124;53.394;-6.294;2023-05-02T00:29:52;101617.47;;;18.24;9.96
64698;BME280;51124;53.394;-6.294;2023-05-02T00:32:19;101622.75;;;18.52;9.73
64698;BME280;51124;53.394;-6.294;2023-05-02T00:34:46;101624.51;;;17.51;10.04
64698;BME280;51124;53.394;-6.294;2023-05-02T00:37:14;101626.19;;;18.39;9.75
64698;BME280;51124;53.394;-6.294;2023-05-02T00:39:41;101623.93;;;18.37;9.75
64698;BME280;51124;53.394;-6.294;2023-05-02T00:42:08;101623.08;;;18.66;9.60
64698;BME280;51124;53.394;-6.294;2023-05-02T00:44:35;101625.29;;;17.78;9.63
64698;BME280;51124;53.394;-6.294;2023-05-02T00:47:03;101632.03;;;18.97;9.48
64698;BME280;51124;53.394;-6.294;2023-05-02T00:49:31;101634.60;;;19.07;9.43
64698;BME280;51124;53.394;-6.294;2023-05-02T00:51:59;101635.40;;;17.86;9.79
64698;BME280;51124;53.394;-6.294;2023-05-02T00:54:26;101628.69;;;18.89;9.46
64698;BME280;51124;53.394;-6.294;2023-05-02T00:56:53;101627.56;;;17.99;9.67
64698;BME280;51124;53.394;-6.294;2023-05-02T00:59:21;101628.25;;;19.03;9.35
64698;BME280;51124;53.394;-6.294;2023-05-02T01:01:56;101629.56;;;17.79;9.64
64698;BME280;51124;53.394;-6.294;2023-05-02T01:04:27;101631.32;;;18.88;9.50
64698;BME280;51124;53.394;-6.294;2023-05-02T01:06:54;101633.90;;;18.10;9.57
64698;BME280;51124;53.394;-6.294;2023-05-02T01:09:24;101629.21;;;18.38;9.60
64698;BME280;51124;53.394;-6.294;2023-05-02T01:11:51;101629.03;;;18.40;9.42
64698;BME280;51124;53.394;-6.294;2023-05-02T01:14:20;101625.72;;;18.44;9.40
64698;BME280;51124;53.394;-6.294;2023-05-02T01:16:49;101626.62;;;18.52;9.34
64698;BME280;51124;53.394;-6.294;2023-05-02T01:19:24;101623.77;;;18.34;9.58
64698;BME280;51124;53.394;-6.294;2023-05-02T01:21:52;101630.23;;;19.35;9.36
64698;BME280;51124;53.394;-6.294;2023-05-02T01:24:26;101631.49;;;18.69;9.55
64698;BME280;51124;53.394;-6.294;2023-05-02T01:26:56;101630.88;;;18.43;9.35
64698;BME280;51124;53.394;-6.294;2023-05-02T01:29:16;101635.12;;;18.87;9.57
64698;BME280;51124;53.394;-6.294;2023-05-02T01:31:48;101633.04;;;17.83;9.64
64698;BME280;51124;53.394;-6.294;2023-05-02T01:34:18;101631.22;;;18.38;9.58
64698;BME280;51124;53.394;-6.294;2023-05-02T01:36:47;101630.95;;;19.06;9.42
64698;BME280;51124;53.394;-6.294;2023-05-02T01:39:19;101634.40;;;19.19;9.40
64698;BME280;51124;53.394;-6.294;2023-05-02T01:41:51;101637.24;;;19.78;9.53
64698;BME280;51124;53.394;-6.294;2023-05-02T01:44:21;101640.52;;;18.61;9.52
64698;BME280;51124;53.394;-6.294;2023-05-02T01:46:49;101640.37;;;19.11;9.48
64698;BME280;51124;53.394;-6.294;2023-05-02T01:49:19;101632.81;;;18.80;9.41
64698;BME280;51124;53.394;-6.294;2023-05-02T01:51:49;101636.36;;;19.40;9.36
64698;BME280;51124;53.394;-6.294;2023-05-02T01:54:18;101635.99;;;18.93;9.32
64698;BME280;51124;53.394;-6.294;2023-05-02T01:56:46;101628.44;;;19.00;9.27
64698;BME280;51124;53.394;-6.294;2023-05-02T01:59:16;101634.04;;;20.09;9.76
64698;BME280;51124;53.394;-6.294;2023-05-02T02:01:45;101632.23;;;19.82;10.09
64698;BME280;51124;53.394;-6.294;2023-05-02T02:04:14;101634.54;;;19.35;9.92
64698;BME280;51124;53.394;-6.294;2023-05-02T02:06:47;101632.70;;;21.38;10.31
64698;BME280;51124;53.394;-6.294;2023-05-02T02:09:17;101638.67;;;21.76;10.57
64698;BME280;51124;53.394;-6.294;2023-05-02T02:11:48;101641.36;;;21.79;11.05
64698;BME280;51124;53.394;-6.294;2023-05-02T02:14:20;101645.49;;;21.50;11.15
64698;BME280;51124;53.394;-6.294;2023-05-02T02:16:49;101647.40;;;20.95;11.52
64698;BME280;51124;53.394;-6.294;2023-05-02T02:19:17;101649.20;;;20.18;11.85
64698;BME280;51124;53.394;-6.294;2023-05-02T02:21:48;101647.91;;;21.11;11.61
64698;BME280;51124;53.394;-6.294;2023-05-02T02:24:19;101649.87;;;20.40;11.82
64698;BME280;51124;53.394;-6.294;2023-05-02T02:26:47;101647.94;;;20.82;11.74
64698;BME280;51124;53.394;-6.294;2023-05-02T02:29:15;101653.77;;;20.91;11.85
64698;BME280;51124;53.394;-6.294;2023-05-02T02:31:42;101653.82;;;20.02;12.06
64698;BME280;51124;53.394;-6.294;2023-05-02T02:34:09;101651.76;;;20.94;11.73
64698;BME280;51124;53.394;-6.294;2023-05-02T02:36:43;101652.32;;;20.61;11.91
64698;BME280;51124;53.394;-6.294;2023-05-02T02:39:20;101653.92;;;21.08;11.78
64698;BME280;51124;53.394;-6.294;2023-05-02T02:41:47;101656.52;;;20.51;12.05
64698;BME280;51124;53.394;-6.294;2023-05-02T02:44:24;101657.10;;;20.60;11.86
64698;BME280;51124;53.394;-6.294;2023-05-02T02:46:49;101658.15;;;21.13;11.85
64698;BME280;51124;53.394;-6.294;2023-05-02T02:49:20;101661.21;;;20.48;11.84
64698;BME280;51124;53.394;-6.294;2023-05-02T02:51:49;101663.90;;;21.23;11.79
64698;BME280;51124;53.394;-6.294;2023-05-02T02:54:17;101662.09;;;20.08;12.00
64698;BME280;51124;53.394;-6.294;2023-05-02T02:56:40;101666.24;;;19.62;12.09
64698;BME280;51124;53.394;-6.294;2023-05-02T02:59:17;101663.32;;;18.99;11.33
64698;BME280;51124;53.394;-6.294;2023-05-02T03:01:38;101665.05;;;18.23;11.09
64698;BME280;51124;53.394;-6.294;2023-05-02T03:04:06;101665.45;;;17.98;10.88
64698;BME280;51124;53.394;-6.294;2023-05-02T03:06:34;101659.20;;;19.48;10.44
64698;BME280;51124;53.394;-6.294;2023-05-02T03:09:02;101659.43;;;18.66;10.46
64698;BME280;51124;53.394;-6.294;2023-05-02T03:11:29;101657.79;;;17.84;10.37
64698;BME280;51124;53.394;-6.294;2023-05-02T03:13:56;101662.33;;;17.71;10.18
64698;BME280;51124;53.394;-6.294;2023-05-02T03:16:40;101662.21;;;18.95;9.83
64698;BME280;51124;53.394;-6.294;2023-05-02T03:18:57;101655.40;;;18.22;9.98
64698;BME280;51124;53.394;-6.294;2023-05-02T03:21:24;101654.78;;;17.21;10.06
64698;BME280;51124;53.394;-6.294;2023-05-02T03:23:52;101655.83;;;18.63;9.86
64698;BME280;51124;53.394;-6.294;2023-05-02T03:26:19;101658.50;;;18.99;9.73
64698;BME280;51124;53.394;-6.294;2023-05-02T03:28:46;101660.08;;;18.11;9.89
64698;BME280;51124;53.394;-6.294;2023-05-02T03:31:13;101663.33;;;17.86;9.81
64698;BME280;51124;53.394;-6.294;2023-05-02T03:33:41;101662.78;;;17.94;9.76
64698;BME280;51124;53.394;-6.294;2023-05-02T03:36:08;101655.58;;;18.72;9.58
64698;BME280;51124;53.394;-6.294;2023-05-02T03:38:36;101653.05;;;18.51;9.65
64698;BME280;51124;53.394;-6.294;2023-05-02T03:41:03;101645.38;;;18.36;9.60
64698;BME280;51124;53.394;-6.294;2023-05-02T03:43:40;101645.58;;;18.77;9.71
64698;BME280;51124;53.394;-6.294;2023-05-02T03:46:08;101639.82;;;19.49;9.37
64698;BME280;51124;53.394;-6.294;2023-05-02T03:48:36;101635.52;;;18.72;9.45
64698;BME280;51124;53.394;-6.294;2023-05-02T03:51:04;101642.22;;;18.13;9.68
64698;BME280;51124;53.394;-6.294;2023-05-02T03:53:32;101635.23;;;18.55;9.62
64698;BME280;51124;53.394;-6.294;2023-05-02T03:55:59;101638.36;;;16.65;9.96
64698;BME280;51124;53.394;-6.294;2023-05-02T03:58:27;101645.96;;;17.89;9.64
64698;BME280;51124;53.394;-6.294;2023-05-02T04:00:54;101652.18;;;17.91;9.70
64698;BME280;51124;53.394;-6.294;2023-05-02T04:03:22;101650.00;;;17.38;9.84
64698;BME280;51124;53.394;-6.294;2023-05-02T04:05:49;101649.46;;;18.46;9.62
64698;BME280;51124;53.394;-6.294;2023-05-02T04:08:16;101651.56;;;18.57;9.49
64698;BME280;51124;53.394;-6.294;2023-05-02T04:10:43;101657.81;;;17.78;9.79
64698;BME280;51124;53.394;-6.294;2023-05-02T04:13:11;101662.19;;;17.75;9.75
64698;BME280;51124;53.394;-6.294;2023-05-02T04:15:38;101657.54;;;18.02;9.73
64698;BME280;51124;53.394;-6.294;2023-05-02T04:18:06;101655.69;;;17.98;9.78
64698;BME280;51124;53.394;-6.294;2023-05-02T04:20:34;101650.29;;;19.02;9.51
64698;BME280;51124;53.394;-6.294;2023-05-02T04:23:01;101648.75;;;17.62;9.82
64698;BME280;51124;53.394;-6.294;2023-05-02T04:25:28;101642.58;;;18.05;9.61
64698;BME280;51124;53.394;-6.294;2023-05-02T04:27:56;101652.96;;;19.02;9.73
64698;BME280;51124;53.394;-6.294;2023-05-02T04:30:23;101653.06;;;18.28;9.73
64698;BME280;51124;53.394;-6.294;2023-05-02T04:32:50;101651.08;;;18.55;9.70
64698;BME280;51124;53.394;-6.294;2023-05-02T04:35:18;101650.49;;;17.64;9.74
64698;BME280;51124;53.394;-6.294;2023-05-02T04:37:45;101649.05;;;18.78;9.32
64698;BME280;51124;53.394;-6.294;2023-05-02T04:40:13;101645.91;;;18.86;9.71
64698;BME280;51124;53.394;-6.294;2023-05-02T04:42:40;101647.74;;;18.45;9.67
64698;BME280;51124;53.394;-6.294;2023-05-02T04:45:08;101648.08;;;18.87;9.62
64698;BME280;51124;53.394;-6.294;2023-05-02T04:47:36;101646.48;;;17.66;9.58
64698;BME280;51124;53.394;-6.294;2023-05-02T04:50:03;101646.19;;;17.91;9.58
64698;BME280;51124;53.394;-6.294;2023-05-02T04:52:31;101647.51;;;19.30;9.24
64698;BME280;51124;53.394;-6.294;2023-05-02T04:54:58;101646.33;;;18.64;9.33
64698;BME280;51124;53.394;-6.294;2023-05-02T04:57:25;101649.30;;;20.35;9.71
64698;BME280;51124;53.394;-6.294;2023-05-02T04:59:53;101654.73;;;19.98;10.07
64698;BME280;51124;53.394;-6.294;2023-05-02T05:02:20;101651.24;;;19.00;10.28
64698;BME280;51124;53.394;-6.294;2023-05-02T05:04:47;101645.65;;;20.78;10.40
64698;BME280;51124;53.394;-6.294;2023-05-02T05:07:15;101649.46;;;21.74;10.82
64698;BME280;51124;53.394;-6.294;2023-05-02T05:09:42;101655.63;;;21.19;11.06
64698;BME280;51124;53.394;-6.294;2023-05-02T05:12:10;101663.29;;;20.63;11.43
64698;BME280;51124;53.394;-6.294;2023-05-02T05:14:37;101666.41;;;20.82;11.74
64698;BME280;51124;53.394;-6.294;2023-05-02T05:17:05;101670.05;;;21.37;11.52
64698;BME280;51124;53.394;-6.294;2023-05-02T05:19:33;101669.89;;;21.16;11.74
64698;BME280;51124;53.394;-6.294;2023-05-02T05:22:00;101672.34;;;19.99;11.98
64698;BME280;51124;53.394;-6.294;2023-05-02T05:24:27;101677.24;;;20.11;11.97
64698;BME280;51124;53.394;-6.294;2023-05-02T05:26:55;101678.54;;;21.22;11.75
64698;BME280;51124;53.394;-6.294;2023-05-02T05:29:22;101680.45;;;20.87;11.90
64698;BME280;51124;53.394;-6.294;2023-05-02T05:31:49;101681.98;;;21.01;11.73
64698;BME280;51124;53.394;-6.294;2023-05-02T05:34:17;101683.41;;;20.36;11.97
64698;BME280;51124;53.394;-6.294;2023-05-02T05:36:44;101685.94;;;20.51;12.06
64698;BME280;51124;53.394;-6.294;2023-05-02T05:39:12;101691.55;;;20.53;12.01
64698;BME280;51124;53.394;-6.294;2023-05-02T05:41:39;101689.38;;;20.55;12.00
64698;BME280;51124;53.394;-6.294;2023-05-02T05:44:07;101684.20;;;21.06;11.86
64698;BME280;51124;53.394;-6.294;2023-05-02T05:46:35;101683.71;;;20.50;11.93
64698;BME280;51124;53.394;-6.294;2023-05-02T05:49:02;101676.64;;;21.41;11.84
64698;BME280;51124;53.394;-6.294;2023-05-02T05:51:29;101685.41;;;20.37;12.06
64698;BME280;51124;53.394;-6.294;2023-05-02T05:53:57;101674.47;;;20.72;11.83
64698;BME280;51124;53.394;-6.294;2023-05-02T05:56:24;101669.05;;;19.13;11.69
64698;BME280;51124;53.394;-6.294;2023-05-02T05:58:49;101672.14;;;18.07;11.54
64698;BME280;51124;53.394;-6.294;2023-05-02T06:01:12;101665.84;;;18.41;10.88
64698;BME280;51124;53.394;-6.294;2023-05-02T06:03:46;101664.35;;;18.25;10.65
64698;BME280;51124;53.394;-6.294;2023-05-02T06:06:20;101667.33;;;19.17;10.33
64698;BME280;51124;53.394;-6.294;2023-05-02T06:08:53;101668.63;;;18.35;10.29
64698;BME280;51124;53.394;-6.294;2023-05-02T06:11:27;101668.32;;;18.22;10.20
64698;BME280;51124;53.394;-6.294;2023-05-02T06:14:00;101666.74;;;19.73;9.70
64698;BME280;51124;53.394;-6.294;2023-05-02T06:16:33;101672.18;;;19.06;9.66
64698;BME280;51124;53.394;-6.294;2023-05-02T06:19:07;101669.12;;;18.29;9.65
64698;BME280;51124;53.394;-6.294;2023-05-02T06:21:41;101666.56;;;19.14;9.53
64698;BME280;51124;53.394;-6.294;2023-05-02T06:24:14;101665.67;;;19.11;9.56
64698;BME280;51124;53.394;-6.294;2023-05-02T06:26:47;101659.42;;;19.44;9.41
64698;BME280;51124;53.394;-6.294;2023-05-02T06:29:21;101665.76;;;18.80;9.52
64698;BME280;51124;53.394;-6.294;2023-05-02T06:31:54;101670.82;;;19.79;9.17
64698;BME280;51124;53.394;-6.294;2023-05-02T06:34:30;101676.47;;;19.62;9.21
64698;BME280;51124;53.394;-6.294;2023-05-02T06:36:54;101673.16;;;18.98;9.20
64698;BME280;51124;53.394;-6.294;2023-05-02T06:39:27;101673.07;;;19.04;9.19
64698;BME280;51124;53.394;-6.294;2023-05-02T06:42:01;101674.39;;;19.48;9.12
64698;BME280;51124;53.394;-6.294;2023-05-02T06:44:34;101679.63;;;19.04;8.98
64698;BME280;51124;53.394;-6.294;2023-05-02T06:47:18;101674.64;;;19.54;8.88
64698;BME280;51124;53.394;-6.294;2023-05-02T06:49:51;101673.22;;;19.67;8.90
64698;BME280;51124;53.394;-6.294;2023-05-02T06:52:24;101672.87;;;20.49;8.69
64698;BME280;51124;53.394;-6.294;2023-05-02T06:55:00;101673.19;;;20.31;8.74
64698;BME280;51124;53.394;-6.294;2023-05-02T06:57:24;101669.30;;;20.10;8.78
64698;BME280;51124;53.394;-6.294;2023-05-02T06:59:57;101675.29;;;19.55;8.80
64698;BME280;51124;53.394;-6.294;2023-05-02T07:02:31;101669.09;;;20.32;8.74
64698;BME280;51124;53.394;-6.294;2023-05-02T07:05:04;101674.93;;;19.91;8.85
64698;BME280;51124;53.394;-6.294;2023-05-02T07:07:38;101676.01;;;19.99;8.80
64698;BME280;51124;53.394;-6.294;2023-05-02T07:10:11;101674.82;;;20.33;8.71
64698;BME280;51124;53.394;-6.294;2023-05-02T07:12:45;101672.65;;;20.72;8.66
64698;BME280;51124;53.394;-6.294;2023-05-02T07:15:18;101672.05;;;21.26;8.59
64698;BME280;51124;53.394;-6.294;2023-05-02T07:17:52;101674.23;;;18.29;10.01
64698;BME280;51124;53.394;-6.294;2023-05-02T07:20:25;101668.64;;;18.33;10.04
64698;BME280;51124;53.394;-6.294;2023-05-02T07:22:59;101663.50;;;18.02;10.08
64698;BME280;51124;53.394;-6.294;2023-05-02T07:25:32;101666.69;;;17.87;10.16
64698;BME280;51124;53.394;-6.294;2023-05-02T07:28:06;101678.54;;;18.44;10.47
64698;BME280;51124;53.394;-6.294;2023-05-02T07:30:39;101677.65;;;18.92;9.78
64698;BME280;51124;53.394;-6.294;2023-05-02T07:33:14;101674.40;;;18.15;10.02
64698;BME280;51124;53.394;-6.294;2023-05-02T07:35:47;101670.17;;;19.85;9.70
64698;BME280;51124;53.394;-6.294;2023-05-02T07:38:20;101679.19;;;18.84;9.82
64698;BME280;51124;53.394;-6.294;2023-05-02T07:40:57;101674.31;;;19.61;9.70
64698;BME280;51124;53.394;-6.294;2023-05-02T07:43:20;101678.64;;;19.48;9.74
64698;BME280;51124;53.394;-6.294;2023-05-02T07:45:53;101678.96;;;20.30;9.21
64698;BME280;51124;53.394;-6.294;2023-05-02T07:48:27;101677.53;;;21.18;8.92
64698;BME280;51124;53.394;-6.294;2023-05-02T07:51:09;101690.73;;;20.17;9.25
64698;BME280;51124;53.394;-6.294;2023-05-02T07:53:32;101683.17;;;21.07;8.80
64698;BME280;51124;53.394;-6.294;2023-05-02T07:56:06;101685.18;;;21.05;8.96
64698;BME280;51124;53.394;-6.294;2023-05-02T07:58:40;101687.13;;;22.96;9.43
64698;BME280;51124;53.394;-6.294;2023-05-02T08:01:13;101682.99;;;22.76;9.57
64698;BME280;51124;53.394;-6.294;2023-05-02T08:03:47;101689.76;;;21.68;9.57
64698;BME280;51124;53.394;-6.294;2023-05-02T08:06:20;101693.54;;;23.72;9.66
64698;BME280;51124;53.394;-6.294;2023-05-02T08:08:53;101698.19;;;24.71;10.01
64698;BME280;51124;53.394;-6.294;2023-05-02T08:11:27;101691.95;;;23.52;10.46
64698;BME280;51124;53.394;-6.294;2023-05-02T08:14:01;101700.39;;;23.62;10.65
64698;BME280;51124;53.394;-6.294;2023-05-02T08:16:35;101690.53;;;23.51;10.80
64698;BME280;51124;53.394;-6.294;2023-05-02T08:19:09;101689.45;;;23.73;11.00
64698;BME280;51124;53.394;-6.294;2023-05-02T08:21:42;101693.61;;;23.41;11.10
64698;BME280;51124;53.394;-6.294;2023-05-02T08:24:16;101697.34;;;23.02;11.21
64698;BME280;51124;53.394;-6.294;2023-05-02T08:26:50;101699.72;;;23.78;11.25
64698;BME280;51124;53.394;-6.294;2023-05-02T08:29:23;101706.49;;;23.77;11.22
64698;BME280;51124;53.394;-6.294;2023-05-02T08:31:56;101711.41;;;23.52;11.16
64698;BME280;51124;53.394;-6.294;2023-05-02T08:34:30;101715.51;;;23.64;11.30
64698;BME280;51124;53.394;-6.294;2023-05-02T08:37:07;101710.29;;;23.05;11.45
64698;BME280;51124;53.394;-6.294;2023-05-02T08:39:32;101709.80;;;23.94;11.41
64698;BME280;51124;53.394;-6.294;2023-05-02T08:42:05;101719.12;;;23.32;11.47
64698;BME280;51124;53.394;-6.294;2023-05-02T08:44:39;101718.75;;;22.94;11.64
64698;BME280;51124;53.394;-6.294;2023-05-02T08:47:14;101725.38;;;22.65;11.80
64698;BME280;51124;53.394;-6.294;2023-05-02T08:49:49;101728.57;;;23.77;11.50
64698;BME280;51124;53.394;-6.294;2023-05-02T08:52:24;101728.52;;;22.79;11.68
64698;BME280;51124;53.394;-6.294;2023-05-02T08:55:21;101728.16;;;23.69;11.45
64698;BME280;51124;53.394;-6.294;2023-05-02T08:57:25;101730.93;;;23.34;11.33
64698;BME280;51124;53.394;-6.294;2023-05-02T08:59:50;101726.54;;;22.25;10.91
64698;BME280;51124;53.394;-6.294;2023-05-02T09:02:37;101722.19;;;20.95;10.91
64698;BME280;51124;53.394;-6.294;2023-05-02T09:05:06;101723.30;;;22.13;10.32
64698;BME280;51124;53.394;-6.294;2023-05-02T09:07:19;101728.21;;;23.06;9.90
64698;BME280;51124;53.394;-6.294;2023-05-02T09:09:52;101727.59;;;22.39;10.03
64698;BME280;51124;53.394;-6.294;2023-05-02T09:12:26;101728.57;;;21.17;9.93
64698;BME280;51124;53.394;-6.294;2023-05-02T09:15:15;101723.72;;;22.00;9.81
64698;BME280;51124;53.394;-6.294;2023-05-02T09:17:38;101726.21;;;21.72;9.74
64698;BME280;51124;53.394;-6.294;2023-05-02T09:20:02;101723.91;;;22.25;9.67
64698;BME280;51124;53.394;-6.294;2023-05-02T09:22:36;101730.27;;;22.54;9.45
64698;BME280;51124;53.394;-6.294;2023-05-02T09:25:10;101724.16;;;22.26;9.50
64698;BME280;51124;53.394;-6.294;2023-05-02T09:27:53;101721.17;;;21.87;9.51
64698;BME280;51124;53.394;-6.294;2023-05-02T09:30:21;101711.62;;;22.23;9.51
64698;BME280;51124;53.394;-6.294;2023-05-02T09:32:45;101703.46;;;23.08;9.42
64698;BME280;51124;53.394;-6.294;2023-05-02T09:35:21;101702.97;;;22.23;9.40
64698;BME280;51124;53.394;-6.294;2023-05-02T09:37:56;101708.30;;;22.07;9.39
64698;BME280;51124;53.394;-6.294;2023-05-02T09:40:19;101702.98;;;22.01;9.33
64698;BME280;51124;53.394;-6.294;2023-05-02T09:42:53;101693.06;;;22.80;9.25
64698;BME280;51124;53.394;-6.294;2023-05-02T09:45:28;101690.58;;;22.43;9.30
64698;BME280;51124;53.394;-6.294;2023-05-02T09:48:01;101692.25;;;22.36;9.28
64698;BME280;51124;53.394;-6.294;2023-05-02T09:50:38;101688.05;;;22.08;9.31
64698;BME280;51124;53.394;-6.294;2023-05-02T09:53:05;101697.33;;;22.80;8.98
64698;BME280;51124;53.394;-6.294;2023-05-02T09:55:31;101695.41;;;22.28;9.01
64698;BME280;51124;53.394;-6.294;2023-05-02T09:57:55;101702.33;;;23.66;8.73
64698;BME280;51124;53.394;-6.294;2023-05-02T10:00:44;101710.99;;;23.38;8.83
64698;BME280;51124;53.394;-6.294;2023-05-02T10:02:57;101707.61;;;22.77;8.81
64698;BME280;51124;53.394;-6.294;2023-05-02T10:05:31;101708.82;;;23.02;8.75
64698;BME280;51124;53.394;-6.294;2023-05-02T10:07:56;101705.10;;;23.57;8.59
64698;BME280;51124;53.394;-6.294;2023-05-02T10:10:31;101702.76;;;22.61;8.88
64698;BME280;51124;53.394;-6.294;2023-05-02T10:12:55;101702.96;;;22.31;8.64
64698;BME280;51124;53.394;-6.294;2023-05-02T10:15:30;101711.80;;;22.51;8.70
64698;BME280;51124;53.394;-6.294;2023-05-02T10:17:56;101709.12;;;22.26;8.88
64698;BME280;51124;53.394;-6.294;2023-05-02T10:20:22;101712.99;;;23.00;8.56
64698;BME280;51124;53.394;-6.294;2023-05-02T10:22:48;101711.68;;;23.08;8.51
64698;BME280;51124;53.394;-6.294;2023-05-02T10:25:24;101714.51;;;22.70;8.38
64698;BME280;51124;53.394;-6.294;2023-05-02T10:27:49;101720.57;;;23.24;8.57
64698;BME280;51124;53.394;-6.294;2023-05-02T10:30:16;101714.44;;;23.30;8.24
64698;BME280;51124;53.394;-6.294;2023-05-02T10:32:41;101720.68;;;23.88;8.07
64698;BME280;51124;53.394;-6.294;2023-05-02T10:35:10;101720.41;;;24.08;8.34
64698;BME280;51124;53.394;-6.294;2023-05-02T10:37:36;101717.23;;;22.57;8.49
64698;BME280;51124;53.394;-6.294;2023-05-02T10:40:00;101719.88;;;23.90;8.24
64698;BME280;51124;53.394;-6.294;2023-05-02T10:42:36;101723.32;;;24.20;8.17
64698;BME280;51124;53.394;-6.294;2023-05-02T10:45:00;101719.31;;;23.55;8.15
64698;BME280;51124;53.394;-6.294;2023-05-02T10:47:34;101726.44;;;24.80;8.14
64698;BME280;51124;53.394;-6.294;2023-05-02T10:50:09;101728.72;;;23.60;8.41
64698;BME280;51124;53.394;-6.294;2023-05-02T10:52:42;101735.34;;;23.75;8.16
64698;BME280;51124;53.394;-6.294;2023-05-02T10:55:17;101734.70;;;24.71;7.90
64698;BME280;51124;53.394;-6.294;2023-05-02T10:58:23;101731.18;;;23.64;8.10
64698;BME280;51124;53.394;-6.294;2023-05-02T11:00:27;101738.02;;;22.85;7.92
64698;BME280;51124;53.394;-6.294;2023-05-02T11:03:01;101740.89;;;23.55;7.85
64698;BME280;51124;53.394;-6.294;2023-05-02T11:06:03;101747.02;;;25.17;8.12
64698;BME280;51124;53.394;-6.294;2023-05-02T11:08:38;101739.54;;;25.45;8.40
64698;BME280;51124;53.394;-6.294;2023-05-02T11:10:41;101743.00;;;24.45;8.54
64698;BME280;51124;53.394;-6.294;2023-05-02T11:13:15;101750.26;;;23.49;8.76
64698;BME280;51124;53.394;-6.294;2023-05-02T11:15:56;101761.58;;;26.68;8.97
64698;BME280;51124;53.394;-6.294;2023-05-02T11:18:22;101762.34;;;26.04;9.60
64698;BME280;51124;53.394;-6.294;2023-05-02T11:20:47;101762.21;;;25.14;9.93
64698;BME280;51124;53.394;-6.294;2023-05-02T11:23:22;101763.34;;;25.61;10.05
64698;BME280;51124;53.394;-6.294;2023-05-02T11:25:47;101757.59;;;26.00;9.99
64698;BME280;51124;53.394;-6.294;2023-05-02T11:28:41;101760.89;;;25.21;10.37
64698;BME280;51124;53.394;-6.294;2023-05-02T11:30:45;101759.89;;;24.88;10.52
64698;BME280;51124;53.394;-6.294;2023-05-02T11:33:18;101757.48;;;24.69;10.77
64698;BME280;51124;53.394;-6.294;2023-05-02T11:35:54;101757.03;;;25.00;10.68
64698;BME280;51124;53.394;-6.294;2023-05-02T11:38:19;101754.19;;;25.23;10.71
64698;BME280;51124;53.394;-6.294;2023-05-02T11:40:55;101759.86;;;24.99;10.65
64698;BME280;51124;53.394;-6.294;2023-05-02T11:43:20;101755.17;;;25.12;10.79
64698;BME280;51124;53.394;-6.294;2023-05-02T11:45:55;101757.83;;;25.16;10.73
64698;BME280;51124;53.394;-6.294;2023-05-02T11:48:20;101751.36;;;25.61;10.54
64698;BME280;51124;53.394;-6.294;2023-05-02T11:50:56;101754.32;;;25.16;10.46
64698;BME280;51124;53.394;-6.294;2023-05-02T11:53:21;101754.05;;;26.70;10.08
64698;BME280;51124;53.394;-6.294;2023-05-02T11:55:56;101753.69;;;25.81;10.31
64698;BME280;51124;53.394;-6.294;2023-05-02T11:58:24;101750.61;;;26.69;10.04
64698;BME280;51124;53.394;-6.294;2023-05-02T12:00:48;101752.50;;;27.36;9.78
64698;BME280;51124;53.394;-6.294;2023-05-02T12:03:28;101754.66;;;26.27;9.94
64698;BME280;51124;53.394;-6.294;2023-05-02T12:05:51;101751.72;;;25.45;9.91
64698;BME280;51124;53.394;-6.294;2023-05-02T12:08:26;101754.32;;;24.14;9.66
64698;BME280;51124;53.394;-6.294;2023-05-02T12:11:00;101741.96;;;24.96;9.12
64698;BME280;51124;53.394;-6.294;2023-05-02T12:13:34;101737.13;;;26.02;8.55
64698;BME280;51124;53.394;-6.294;2023-05-02T12:16:07;101736.72;;;25.59;8.36
64698;BME280;51124;53.394;-6.294;2023-05-02T12:18:41;101736.19;;;24.87;8.35
64698;BME280;51124;53.394;-6.294;2023-05-02T12:21:14;101730.75;;;24.58;8.23
64698;BME280;51124;53.394;-6.294;2023-05-02T12:23:49;101730.97;;;24.95;7.81
64698;BME280;51124;53.394;-6.294;2023-05-02T12:26:23;101727.02;;;27.07;7.16
64698;BME280;51124;53.394;-6.294;2023-05-02T12:28:57;101725.15;;;27.35;6.80
64698;BME280;51124;53.394;-6.294;2023-05-02T12:31:30;101718.69;;;29.02;6.11
64698;BME280;51124;53.394;-6.294;2023-05-02T12:34:04;101715.71;;;30.49;5.59
64698;BME280;51124;53.394;-6.294;2023-05-02T12:36:43;101720.37;;;30.76;5.21
64698;BME280;51124;53.394;-6.294;2023-05-02T12:39:06;101716.99;;;31.88;4.57
64698;BME280;51124;53.394;-6.294;2023-05-02T12:41:39;101716.74;;;32.89;4.20
64698;BME280;51124;53.394;-6.294;2023-05-02T12:44:13;101708.35;;;33.68;3.76
64698;BME280;51124;53.394;-6.294;2023-05-02T12:46:58;101699.46;;;34.47;3.33
64698;BME280;51124;53.394;-6.294;2023-05-02T12:49:21;101693.82;;;34.78;3.16
64698;BME280;51124;53.394;-6.294;2023-05-02T12:51:56;101694.87;;;34.35;3.13
64698;BME280;51124;53.394;-6.294;2023-05-02T12:54:29;101692.50;;;36.21;2.80
64698;BME280;51124;53.394;-6.294;2023-05-02T12:57:03;101685.59;;;33.96;3.02
64698;BME280;51124;53.394;-6.294;2023-05-02T12:59:36;101691.14;;;32.49;3.75